AXX weather

Angel Fire Airport
Angel Fire, New Mexico, United States

Public forecast

Using degrees Fahrenheit for public forecast. Weather courtesy of forecast.io.

Current aviation weather report (METAR) for Angel Fire Airport

Retrieved 2020/02/20 04:35 UTC (0 seconds ago):

KAXX 200435Z AUTO 20014G19KT 10SM BKN033 BKN047 OVC065 M01/M03 A3020 RMK AO2 T10101035

Closest aviation forecast (TAF) to Angel Fire Airport

Closest forecast is Las Vegas Municipal Airport, 46.7 nm (86.4 km) S. Retrieved 2020-02-20 00:40 UTC (4 hours ago):

TAF KLVS 192338Z 2000/2024 20018G26KT P6SM BKN120 FM200200 20011KT P6SM OVC080 FM200500 04011KT P6SM VCSH SCT020 OVC060 FM200700 05011KT 1SM -SN BR OVC005 FM201200 08008KT 1/4SM FZFG VCSH OVC002 FM201900 16013KT P6SM BKN050